Time;durP1;ratioP1;P1;durP2;ratioP2;P2;SDS_P1;SDS_P2;PMS_P1;PMS_P2;Temp;Humidity;BMP_temperature;BMP_pressure;BME280_temperature;BME280_humidity;BME280_pressure;Samples;Min_cycle;Max_cycle;Signal;HPM_P1;HPM_P2
2023/02/25 00:02:02;;;;;;;22.00;12.90;;;;;;;3.25;89.42;96467.86;435741;1251;107973;-41
2023/02/25 00:12:09;;;;;;;28.40;15.70;;;;;;;3.32;89.66;96439.41;435929;1253;99218;-40
2023/02/25 00:22:17;;;;;;;37.90;18.90;;;;;;;3.31;89.49;96424.98;435928;1250;108523;-41
2023/02/25 00:42:31;;;;;;;37.70;17.70;;;;;;;2.94;89.54;96429.02;435951;1253;112157;-39
2023/02/25 00:52:40;;;;;;;32.30;19.70;;;;;;;2.93;89.51;96406.20;435709;1250;108403;-40
2023/02/25 01:12:54;;;;;;;32.90;19.00;;;;;;;2.92;89.35;96381.80;435703;1251;111444;-40
2023/02/25 01:23:01;;;;;;;37.20;21.30;;;;;;;2.96;89.64;96369.58;435609;1253;109185;-42
2023/02/25 01:33:07;;;;;;;37.80;23.40;;;;;;;3.22;89.97;96367.48;435749;1253;99177;-39
2023/02/25 01:43:14;;;;;;;48.50;26.20;;;;;;;3.31;89.71;96354.23;435607;1253;108325;-40
2023/02/25 01:53:22;;;;;;;39.30;21.10;;;;;;;3.28;89.87;96347.05;435684;1253;99177;-39
2023/02/25 02:03:34;;;;;;;36.60;21.10;;;;;;;3.13;89.55;96349.65;435616;1253;114227;-40
2023/02/25 02:13:47;;;;;;;22.50;13.20;;;;;;;3.01;89.46;96343.55;435558;1253;107734;-40
2023/02/25 02:24:16;;;;;;;15.80;9.00;;;;;;;2.95;89.41;96335.99;436991;1247;98020;-40
2023/02/25 02:34:27;;;;;;;12.40;8.00;;;;;;;2.83;89.47;96325.98;436509;1246;113369;-40
2023/02/25 02:44:39;;;;;;;11.00;7.50;;;;;;;2.75;89.94;96330.86;436555;1250;107822;-39
2023/02/25 02:54:55;;;;;;;15.80;8.80;;;;;;;2.79;89.94;96334.58;436667;1251;97971;-40
2023/02/25 03:05:06;;;;;;;13.80;9.20;;;;;;;2.86;89.93;96332.09;436688;1250;106896;-40
2023/02/25 03:15:13;;;;;;;13.80;8.40;;;;;;;2.79;89.97;96339.08;436654;1251;98059;-40
2023/02/25 03:25:20;;;;;;;13.00;8.00;;;;;;;2.61;89.95;96337.93;437318;1250;112707;-40
2023/02/25 03:35:29;;;;;;;10.20;7.20;;;;;;;2.46;89.86;96341.77;437458;1246;108074;-40
2023/02/25 03:45:35;;;;;;;10.70;7.10;;;;;;;2.37;89.80;96354.31;437681;1248;97967;-39
2023/02/25 03:55:43;;;;;;;7.20;5.50;;;;;;;2.33;90.19;96366.13;437579;1250;107777;-40
2023/02/25 04:05:50;;;;;;;8.30;5.80;;;;;;;2.32;90.21;96369.02;437522;1246;98280;-41
2023/02/25 04:15:57;;;;;;;9.60;6.40;;;;;;;2.36;90.41;96359.55;437627;1249;111928;-40
2023/02/25 04:26:04;;;;;;;13.60;7.00;;;;;;;2.33;90.32;96359.96;437536;1250;107637;-39
2023/02/25 04:36:22;;;;;;;11.60;7.00;;;;;;;2.24;90.49;96353.66;437570;1248;98755;-39
2023/02/25 04:46:30;;;;;;;7.40;5.50;;;;;;;2.28;90.26;96344.55;437616;1248;111415;-39
2023/02/25 04:56:38;;;;;;;8.40;5.30;;;;;;;2.29;90.09;96329.39;437571;1249;107151;-39
2023/02/25 05:06:44;;;;;;;6.90;5.20;;;;;;;2.28;89.97;96322.27;437680;1246;99240;-40
2023/02/25 05:16:52;;;;;;;8.80;6.30;;;;;;;2.23;90.15;96320.72;437603;1249;107411;-39
2023/02/25 05:27:07;;;;;;;11.50;7.00;;;;;;;2.14;90.13;96330.67;437531;1249;99224;-39
2023/02/25 05:37:15;;;;;;;17.40;9.50;;;;;;;2.03;90.19;96334.95;437654;1250;111510;-38
2023/02/25 05:47:23;;;;;;;12.20;7.20;;;;;;;2.12;90.21;96334.09;437632;1247;108840;-39
2023/02/25 05:57:30;;;;;;;7.40;5.90;;;;;;;2.12;90.03;96340.54;437628;1249;99202;-38
2023/02/25 06:07:38;;;;;;;6.20;4.40;;;;;;;2.08;89.84;96347.80;437674;1246;111120;-40
2023/02/25 06:17:46;;;;;;;7.10;5.00;;;;;;;2.06;89.83;96346.30;437523;1247;108364;-40
2023/02/25 06:27:53;;;;;;;9.80;6.90;;;;;;;2.21;90.18;96356.52;437567;1248;99208;-40
2023/02/25 06:38:02;;;;;;;10.60;7.40;;;;;;;2.30;90.18;96352.28;437680;1248;110585;-40
2023/02/25 06:48:10;;;;;;;8.50;5.80;;;;;;;2.64;90.20;96346.95;437498;1249;108598;-39
2023/02/25 07:08:24;;;;;;;7.70;5.60;;;;;;;3.44;89.95;96337.77;437566;1248;112140;-39
2023/02/25 07:18:31;;;;;;;14.80;7.00;;;;;;;3.48;89.75;96339.70;437536;1250;107571;-41
2023/02/25 07:28:40;;;;;;;9.30;6.00;;;;;;;4.07;90.15;96348.62;437572;1247;98713;-40
2023/02/25 07:48:52;;;;;;;4.10;2.90;;;;;;;3.58;88.47;96352.59;437588;1247;107529;-38
2023/02/25 07:59:00;;;;;;;5.70;3.10;;;;;;;3.36;88.72;96356.16;437548;1249;98270;-39
2023/02/25 08:09:09;;;;;;;7.60;4.60;;;;;;;3.14;88.94;96354.71;437736;1249;107438;-41
2023/02/25 08:19:17;;;;;;;7.00;3.30;;;;;;;3.12;88.99;96346.71;437591;1249;99239;-39
2023/02/25 08:29:25;;;;;;;7.00;3.40;;;;;;;3.33;89.14;96339.48;437493;1249;111836;-40
2023/02/25 08:39:34;;;;;;;3.60;2.40;;;;;;;3.69;88.94;96336.60;437520;1250;107651;-39
2023/02/25 08:59:46;;;;;;;4.10;3.10;;;;;;;3.84;88.11;96342.73;437736;1249;108166;-41
2023/02/25 09:09:53;;;;;;;7.70;4.70;;;;;;;3.64;88.18;96352.80;437484;1250;99241;-38
2023/02/25 09:30:08;;;;;;;6.00;5.00;;;;;;;3.79;88.17;96356.69;437521;1249;107909;-40
2023/02/25 09:40:16;;;;;;;3.80;3.30;;;;;;;3.92;88.09;96360.95;437578;1248;98729;-39
2023/02/25 10:10:32;;;;;;;3.60;3.00;;;;;;;4.59;87.15;96366.61;437683;1249;111250;-39
2023/02/25 10:20:56;;;;;;;2.40;2.20;;;;;;;4.46;86.81;96367.69;437663;1247;106647;-39
2023/02/25 10:31:05;;;;;;;2.90;1.80;;;;;;;4.35;86.40;96375.83;437629;1245;99241;-40
2023/02/25 10:41:13;;;;;;;3.80;2.00;;;;;;;4.25;86.13;96380.12;437640;1249;107152;-40
2023/02/25 11:01:34;;;;;;;6.50;4.00;;;;;;;4.22;86.39;96378.45;437513;1249;112091;-39
2023/02/25 11:11:55;;;;;;;9.40;5.70;;;;;;;4.19;86.65;96381.56;437660;1249;107105;-40
2023/02/25 11:22:07;;;;;;;4.90;2.70;;;;;;;4.02;86.65;96389.83;437536;1246;99245;-41
2023/02/25 11:32:18;;;;;;;24.40;8.90;;;;;;;4.21;86.84;96396.45;437531;1249;108013;-40
2023/02/25 11:42:25;;;;;;;10.30;4.80;;;;;;;4.24;86.46;96396.33;437570;1249;97962;-40
2023/02/25 11:52:35;;;;;;;14.90;6.40;;;;;;;4.11;86.34;96403.13;437476;1249;112895;-40
2023/02/25 12:02:48;;;;;;;12.70;7.20;;;;;;;4.44;86.29;96405.98;437523;1249;108703;-40
2023/02/25 12:13:25;;;;;;;10.40;5.20;;;;;;;4.34;85.77;96408.69;437487;1249;99237;-39
2023/02/25 12:24:01;;;;;;;21.90;8.40;;;;;;;4.18;85.51;96414.09;437552;1249;107280;-40
2023/02/25 12:34:42;;;;;;;2.70;2.00;;;;;;;4.47;85.55;96409.92;437601;1249;99330;-40
2023/02/25 12:55:40;;;;;;;2.80;2.30;;;;;;;3.80;85.54;96434.51;437520;1250;107811;-40
2023/02/25 13:05:52;;;;;;;12.20;5.50;;;;;;;3.01;84.76;96471.40;437492;1247;99111;-40
2023/02/25 13:15:59;;;;;;;5.10;2.80;;;;;;;2.28;85.39;96469.96;437560;1247;107589;-40
2023/02/25 13:26:13;;;;;;;4.30;3.50;;;;;;;2.60;86.05;96474.15;437510;1247;97974;-40
2023/02/25 13:36:27;;;;;;;10.40;5.20;;;;;;;2.48;86.14;96489.31;437523;1250;111384;-39
2023/02/25 13:46:53;;;;;;;7.70;3.40;;;;;;;2.55;86.65;96498.73;437580;1249;106570;-39
2023/02/25 13:57:01;;;;;;;8.20;4.70;;;;;;;3.27;86.80;96494.77;437137;1249;99584;-40
2023/02/25 14:17:52;;;;;;;4.10;2.50;;;;;;;3.12;85.98;96531.73;437596;1247;99240;-40
2023/02/25 14:38:06;;;;;;;6.90;4.30;;;;;;;2.01;86.24;96570.13;437576;1247;107833;-40
2023/02/25 14:48:17;;;;;;;11.00;5.40;;;;;;;2.01;86.70;96577.99;437519;1250;99209;-39
2023/02/25 14:58:53;;;;;;;15.90;6.90;;;;;;;2.06;86.85;96587.55;437425;1250;107729;-39
2023/02/25 15:09:24;;;;;;;13.40;8.00;;;;;;;2.01;87.31;96598.89;437533;1247;99228;-41
2023/02/25 15:20:10;;;;;;;7.80;5.10;;;;;;;1.99;87.28;96616.89;437412;1249;111373;-40
2023/02/25 15:30:20;;;;;;;5.80;3.40;;;;;;;1.99;87.45;96637.05;436292;1248;409023;-40
2023/02/25 15:40:47;;;;;;;3.90;3.20;;;;;;;1.95;87.72;96652.61;437623;1249;99227;-40
2023/02/25 15:50:54;;;;;;;5.70;3.90;;;;;;;1.94;87.90;96668.17;437528;1249;106762;-39
2023/02/25 16:01:01;;;;;;;10.80;6.60;;;;;;;1.96;88.08;96677.33;437580;1250;99188;-39
2023/02/25 16:11:17;;;;;;;10.80;6.30;;;;;;;1.89;88.18;96695.29;437541;1251;111225;-39
2023/02/25 16:41:42;;;;;;;11.20;7.90;;;;;;;1.75;88.53;96732.23;437694;1249;107286;-40
2023/02/25 16:51:52;;;;;;;7.90;5.00;;;;;;;1.76;88.65;96739.30;437424;1248;99205;-39
2023/02/25 17:02:00;;;;;;;;;;;;;;;1.79;88.91;96757.26;437550;1247;111407;-39
2023/02/25 17:12:13;;;;;;;21.10;12.20;;;;;;;1.80;88.91;96775.52;437346;1258;107844;-40
2023/02/25 17:22:19;;;;;;;14.80;8.10;;;;;;;1.72;89.15;96786.69;437484;1251;99669;-40
2023/02/25 17:32:29;;;;;;;17.00;11.90;;;;;;;1.72;89.10;96797.67;437402;1248;107276;-38
2023/02/25 17:42:38;;;;;;;11.70;7.40;;;;;;;1.73;89.13;96809.48;437353;1252;99132;-40
2023/02/25 17:52:49;;;;;;;10.80;6.10;;;;;;;1.71;89.30;96817.72;437343;1250;110748;-40
2023/02/25 18:03:07;;;;;;;21.60;11.10;;;;;;;1.64;89.27;96832.38;437350;1251;107792;-40
2023/02/25 18:13:18;;;;;;;9.10;5.00;;;;;;;1.55;89.72;96844.42;437425;1250;99304;-39
2023/02/25 18:23:23;;;;;;;10.70;6.30;;;;;;;1.44;89.93;96864.33;437353;1250;110722;-40
2023/02/25 18:33:31;;;;;;;9.70;5.80;;;;;;;1.44;89.55;96882.40;437232;1248;108444;-39
2023/02/25 18:43:40;;;;;;;7.10;4.40;;;;;;;1.41;89.76;96899.52;437247;1250;99265;-39
2023/02/25 18:53:46;;;;;;;;;;;;;;;1.39;89.83;96919.00;437348;1250;108077;-39
2023/02/25 19:03:58;;;;;;;6.10;4.00;;;;;;;1.36;89.98;96932.86;437190;1251;99255;-38
2023/02/25 19:14:04;;;;;;;9.70;6.40;;;;;;;1.30;90.12;96948.82;437197;1247;111705;-39
2023/02/25 19:24:11;;;;;;;6.80;4.60;;;;;;;1.24;90.20;96971.26;437297;1251;106626;-38
2023/02/25 19:34:18;;;;;;;22.60;13.80;;;;;;;1.16;90.16;96980.02;437311;1248;98027;-39
2023/02/25 19:44:26;;;;;;;13.90;8.40;;;;;;;1.01;90.55;96999.02;437341;1251;106514;-40
2023/02/25 19:54:33;;;;;;;9.30;5.10;;;;;;;0.91;90.47;97024.48;437092;1251;99243;-39
2023/02/25 20:04:41;;;;;;;6.30;4.40;;;;;;;0.89;90.50;97038.54;437369;1250;111956;-39
2023/02/25 20:24:55;;;;;;;14.80;10.10;;;;;;;0.77;91.26;97069.47;437400;1250;99262;-38
2023/02/25 20:35:00;;;;;;;21.70;14.00;;;;;;;0.75;91.30;97085.85;437408;1248;108805;-40
2023/02/25 20:45:14;;;;;;;14.30;9.60;;;;;;;0.79;91.30;97102.24;437425;1248;99257;-40
2023/02/25 20:55:21;;;;;;;16.10;9.00;;;;;;;0.77;91.49;97120.34;437306;1248;111831;-40
2023/02/25 21:05:28;;;;;;;16.60;11.00;;;;;;;0.74;91.64;97126.40;437251;1248;107250;-40
2023/02/25 21:25:42;;;;;;;19.50;10.60;;;;;;;0.68;92.23;97143.56;437205;1248;107508;-39
2023/02/25 21:46:01;;;;;;;10.70;7.70;;;;;;;0.65;92.26;97173.67;437318;1251;111511;-40
2023/02/25 21:56:14;;;;;;;15.10;9.10;;;;;;;0.64;92.13;97182.87;437423;1250;108347;-38
2023/02/25 22:06:23;;;;;;;19.80;10.90;;;;;;;0.58;92.29;97187.24;437300;1250;97987;-39
2023/02/25 22:16:31;;;;;;;12.50;8.50;;;;;;;0.51;92.46;97198.27;437367;1247;111386;-39
2023/02/25 22:26:39;;;;;;;13.60;7.90;;;;;;;0.46;92.64;97205.40;437192;1247;107255;-40
2023/02/25 22:36:46;;;;;;;9.80;6.70;;;;;;;0.46;92.79;97215.05;437218;1248;97980;-39
2023/02/25 22:56:58;;;;;;;20.90;8.90;;;;;;;0.48;92.47;97261.95;437296;1248;98843;-39
2023/02/25 23:07:05;;;;;;;18.60;9.40;;;;;;;0.43;92.30;97276.85;437259;1250;112076;-39
2023/02/25 23:17:13;;;;;;;13.10;7.40;;;;;;;0.38;92.53;97288.21;437093;1247;107151;-38
2023/02/25 23:27:20;;;;;;;10.30;6.50;;;;;;;0.37;92.28;97300.48;437011;1247;98815;-39
2023/02/25 23:37:30;;;;;;;8.30;5.50;;;;;;;0.32;92.39;97313.69;436953;1251;107426;-39
2023/02/25 23:47:37;;;;;;;;;;;;;;;0.28;92.16;97331.80;436864;1250;99211;-37
2023/02/25 23:57:44;;;;;;;8.60;6.00;;;;;;;0.25;92.12;97345.60;436951;1250;111230;-39
